Details From NWWW - Noumea La Tontouta
To WADD - Denpasar Ngurah Rai Intl
Flight Number -
Tags Generated
Created
Modified
Stats Distance 3,046 nm / 5,642 km
Max Altitude 0 ft / 0 m
Waypoints 6
Social Downloads 4
Likes 0
Share VATSIM

Download

Looking for another format? Having issues loading an existing format? Contact us
Advertisement - Login to hide

Notes

Generated

Route

NWWW MILTN BRLNI PTNSC BLI WADD

ID Type Via Altitude Latitude Longitude Leg Dist Tot Dist Heading (true) Name
O NWWW APT - 0 ft / 0 m -22.00756˚ 166.20102˚ - 0 nm - -
MILTN FIX - 0 ft / 0 m -18.78520˚ 146.97114˚ 1098 nm 1098 nm 277° / 283° -
BRLNI FIX - 0 ft / 0 m -15.91757˚ 136.38888˚ 630 nm 1729 nm 284° / 287° -
PTNSC FIX - 0 ft / 0 m -14.73366˚ 132.46008˚ 238 nm 1967 nm 287° / 288° -
BLI VOR - 0 ft / 0 m -8.75058˚ 115.16331˚ 1078 nm 3045 nm 288° / 291° BALI VOR-DME
O WADD APT - 0 ft / 0 m -8.74871˚ 115.15363˚ 0 nm 3046 nm 281° / 281° -

Altitude Profile

Advertisement - Login to hide

Weather


0- 5 10 15 20 25 30 35+ Temperature / ° C

Clouds and Precipitation
Forecast for 2017-12-17 06:00 UTC. Updated 2 hours ago

Ground ~20,000 ft ~40,000 ft Winds

NWWW

Details ICAO NWWW (NOU)
Name Noumea La Tontouta
Region New Caledonia
Timezone Pacific/Noumea (UTC+11.0)
Stats Elevation 51 ft / 16 m (AMSL)
Location -22.014529° 166.213022°
Runways 1
Magnetic Variation 12.335° E

METAR

NWWW 170300Z AUTO 04007KT 360V080 9999 BKN052 BKN062 BKN076 29/18 Q1008 TEMPO 15015G25KT

Decode

TAF

TAF AMD NWWW 170248Z 1702/1724 04006KT 9999 FEW030 BKN050 PROB30 TEMPO 1702/1706 SHRA FEW030TCU BECMG 1707/1709 VRB02KT

Decode

Departure Runways

ID Width Length Bearing (true) Bearing (mag) Surface Threshold Offset Overrun Length
11 148 ft / 45 m 10,666 ft / 3,251 m 121.21° 108.88° Asphalt 0 ft / 0 m 338 ft / 103 m
29 148 ft / 45 m 10,666 ft / 3,251 m 301.19° 288.86° Asphalt 0 ft / 0 m 354 ft / 108 m

WADD

Details ICAO WADD (DPS)
Name Denpasar Ngurah Rai Intl
Region Indonesia
Timezone Asia/Makassar (UTC+8.0)
Stats Elevation 14 ft / 4 m (AMSL)
Location -8.748169° 115.167174°
Runways 1
Magnetic Variation 1.055° E

METAR

WADD 170230Z 29007KT 270V330 9999 FEW015CB SCT016 29/25 Q1011 NOSIG RMK CB TO E

Decode

TAF

TAF WADD 161700Z 1618/1718 30010KT 9999 SCT016 TEMPO 1618/1622 FEW015CB SCT016 TEMPO 1705/1709 FEW015CB SCT016

Decode

Destination Runways

ID Width Length Bearing (true) Bearing (mag) Surface Threshold Offset Overrun Length
09 148 ft / 45 m 9,779 ft / 2,981 m 87.71° 86.66° Asphalt 121 ft / 37 m 75 ft / 23 m
27 148 ft / 45 m 9,779 ft / 2,981 m 267.70° 266.65° Asphalt 0 ft / 0 m 197 ft / 60 m

Approach Navaids

Runway Type Ident Frequency Range Bearing (true) Bearing (mag) Slope Elevation
27 Localiser IDPS 110.30 MHz 18 nm / 33 km 267.70° 266.65° - 10 ft / 3 m (AMSL)
27 Glidescope IDPS 110.30 MHz 10 nm / 19 km 267.70° 266.65° 3.00° 12 ft / 4 m (AMSL)
27 DME IDPS 110.30 MHz 18 nm / 33 km - - - 14 ft / 4 m (AMSL)

Popular Alternatives